Time;durP1;ratioP1;P1;durP2;ratioP2;P2;SDS_P1;SDS_P2;PMS_P1;PMS_P2;Temp;Humidity;BMP_temperature;BMP_pressure;BME280_temperature;BME280_humidity;BME280_pressure;Samples;Min_cycle;Max_cycle;Signal;HPM_P1;HPM_P2
2022/03/03 00:01:36;;;;;;;24.52;13.38;;;-4.40;99.90;;;;;;5113064;27;20490;-59
2022/03/03 00:04:03;;;;;;;21.55;13.32;;;-4.40;99.90;;;;;;5131576;27;20027;-59
2022/03/03 00:06:29;;;;;;;18.50;12.38;;;-4.40;99.90;;;;;;5131077;27;20494;-59
2022/03/03 00:08:55;;;;;;;21.63;11.70;;;-4.50;99.90;;;;;;5131642;27;20027;-58
2022/03/03 00:11:21;;;;;;;21.23;12.48;;;-4.50;99.90;;;;;;5130938;27;20040;-58
2022/03/03 00:13:46;;;;;;;20.77;12.10;;;-4.50;99.90;;;;;;5113008;27;20478;-58
2022/03/03 00:16:13;;;;;;;23.73;13.25;;;-4.50;99.90;;;;;;5131367;27;20038;-57
2022/03/03 00:18:39;;;;;;;21.08;13.55;;;-4.50;99.90;;;;;;5131084;27;20112;-59
2022/03/03 00:21:04;;;;;;;22.45;13.55;;;-4.60;99.90;;;;;;5131287;27;20102;-58
2022/03/03 00:23:30;;;;;;;18.63;12.57;;;-4.60;99.90;;;;;;5112695;28;20016;-59
2022/03/03 00:25:56;;;;;;;19.45;12.30;;;-4.70;99.90;;;;;;5131153;28;20023;-58
2022/03/03 00:28:22;;;;;;;21.42;11.68;;;-4.70;99.90;;;;;;5131188;28;20019;-57
2022/03/03 00:30:48;;;;;;;20.33;11.63;;;-4.70;99.90;;;;;;5131318;28;20027;-58
2022/03/03 00:33:13;;;;;;;20.35;12.13;;;-4.70;99.90;;;;;;5131187;28;20042;-57
2022/03/03 00:35:39;;;;;;;17.02;11.07;;;-4.70;99.90;;;;;;5130934;28;20038;-58
2022/03/03 00:38:05;;;;;;;10.65;9.32;;;-4.80;99.90;;;;;;5131257;28;20408;-58
2022/03/03 00:40:31;;;;;;;14.13;9.40;;;-4.80;99.90;;;;;;5130989;28;20073;-58
2022/03/03 00:42:56;;;;;;;15.40;10.90;;;-4.80;99.90;;;;;;5131303;28;20300;-58
2022/03/03 00:45:22;;;;;;;14.02;9.88;;;-4.90;99.90;;;;;;5130999;28;20382;-58
2022/03/03 00:47:49;;;;;;;12.27;9.20;;;-4.90;99.90;;;;;;5131217;28;20038;-58
2022/03/03 00:50:15;;;;;;;14.55;9.85;;;-4.90;99.90;;;;;;5131042;28;20031;-59
2022/03/03 00:52:41;;;;;;;13.57;9.30;;;-4.90;99.90;;;;;;5131048;28;20035;-58
2022/03/03 00:55:07;;;;;;;12.35;10.05;;;-4.90;99.90;;;;;;5131170;28;20079;-57
2022/03/03 00:57:33;;;;;;;15.77;9.90;;;-4.90;99.90;;;;;;5131192;28;20335;-58
2022/03/03 01:00:00;;;;;;;14.18;9.48;;;-4.90;99.90;;;;;;5131063;28;20026;-58
2022/03/03 01:02:26;;;;;;;13.10;9.43;;;-4.90;99.90;;;;;;5112456;28;20064;-59
2022/03/03 01:04:51;;;;;;;17.20;9.63;;;-4.90;99.90;;;;;;5130891;28;20112;-58
2022/03/03 01:07:17;;;;;;;12.57;9.38;;;-4.90;99.90;;;;;;5131058;28;20027;-59
2022/03/03 01:09:43;;;;;;;13.55;8.80;;;-4.90;99.90;;;;;;5130881;28;20031;-58
2022/03/03 01:12:09;;;;;;;15.80;9.68;;;-5.00;99.90;;;;;;5130876;28;20096;-57
2022/03/03 01:14:35;;;;;;;15.88;9.68;;;-5.00;99.90;;;;;;5130739;28;20466;-59
2022/03/03 01:17:00;;;;;;;18.88;11.27;;;-5.10;99.90;;;;;;5130867;28;20076;-60
2022/03/03 01:19:26;;;;;;;12.10;9.10;;;-5.10;99.90;;;;;;5130369;28;20046;-59
2022/03/03 01:21:52;;;;;;;14.65;9.52;;;-5.10;99.90;;;;;;5130875;27;20019;-59
2022/03/03 01:24:18;;;;;;;14.13;10.02;;;-5.10;99.90;;;;;;5134402;27;20030;-59
2022/03/03 01:26:44;;;;;;;13.23;9.88;;;-5.20;99.90;;;;;;5134575;27;20034;-59
2022/03/03 01:29:10;;;;;;;16.60;9.93;;;-5.20;99.90;;;;;;5134527;27;20102;-59
2022/03/03 01:31:35;;;;;;;15.18;9.95;;;-5.20;99.90;;;;;;5115908;27;20486;-58
2022/03/03 01:34:01;;;;;;;12.85;9.98;;;-5.30;99.90;;;;;;5134336;27;20081;-59
2022/03/03 01:36:27;;;;;;;18.38;10.27;;;-5.30;99.90;;;;;;5134247;27;20230;-59
2022/03/03 01:38:52;;;;;;;14.05;9.23;;;-5.30;99.90;;;;;;5134282;27;20098;-59
2022/03/03 01:41:18;;;;;;;21.00;11.55;;;-5.20;99.90;;;;;;5134189;27;20051;-59
2022/03/03 01:43:44;;;;;;;14.70;10.77;;;-5.30;99.90;;;;;;5115826;27;20027;-59
2022/03/03 01:46:09;;;;;;;14.60;10.82;;;-5.20;99.90;;;;;;5134218;27;20069;-58
2022/03/03 01:48:35;;;;;;;14.77;10.32;;;-5.30;99.90;;;;;;5134048;27;20087;-58
2022/03/03 01:51:01;;;;;;;17.33;10.73;;;-5.30;99.90;;;;;;5134046;27;20098;-58
2022/03/03 01:53:26;;;;;;;21.17;10.07;;;-5.30;99.90;;;;;;5134061;27;20031;-59
2022/03/03 01:55:54;;;;;;;15.45;10.52;;;-5.30;99.90;;;;;;5133835;27;20023;-57
2022/03/03 01:58:20;;;;;;;14.75;9.80;;;-5.40;99.90;;;;;;5133804;27;20031;-59
2022/03/03 02:00:45;;;;;;;14.85;11.02;;;-5.40;99.90;;;;;;5115554;27;20022;-57
2022/03/03 02:03:11;;;;;;;15.55;10.88;;;-5.50;99.90;;;;;;5133612;27;20019;-59
2022/03/03 02:05:37;;;;;;;19.33;12.50;;;-5.50;99.90;;;;;;5133789;27;20053;-58
2022/03/03 02:08:03;;;;;;;19.67;11.63;;;-5.60;99.90;;;;;;5115354;27;20501;-59
2022/03/03 02:10:31;;;;;;;17.92;11.55;;;-5.50;99.90;;;;;;5115050;27;20023;-59
2022/03/03 02:12:57;;;;;;;17.38;11.60;;;-5.50;99.90;;;;;;5133907;27;20007;-59
2022/03/03 02:15:22;;;;;;;16.85;11.95;;;-5.50;99.90;;;;;;5133502;27;20431;-59
2022/03/03 02:17:49;;;;;;;18.27;12.32;;;-5.50;99.90;;;;;;5133249;27;20610;-59
2022/03/03 02:20:19;;;;;;;17.58;11.77;;;-5.50;99.90;;;;;;5115219;27;20039;-60
2022/03/03 02:22:45;;;;;;;20.45;13.15;;;-5.50;99.90;;;;;;5133845;27;20019;-59
2022/03/03 02:25:11;;;;;;;19.17;12.68;;;-5.50;99.90;;;;;;5133477;27;20030;-59
2022/03/03 02:27:37;;;;;;;17.30;11.13;;;-5.50;99.90;;;;;;5133269;27;20019;-57
2022/03/03 02:30:04;;;;;;;15.50;11.98;;;-5.50;99.90;;;;;;5133317;27;20064;-57
2022/03/03 02:32:29;;;;;;;16.13;11.90;;;-5.60;99.90;;;;;;5133241;27;20453;-59
2022/03/03 02:34:55;;;;;;;25.30;13.65;;;-5.50;99.90;;;;;;5132550;27;20023;-59
2022/03/03 02:37:21;;;;;;;20.00;11.60;;;-5.50;99.90;;;;;;5133344;27;20486;-59
2022/03/03 02:39:47;;;;;;;24.15;12.88;;;-5.60;99.90;;;;;;5114546;27;20026;-59
2022/03/03 02:42:12;;;;;;;21.83;13.80;;;-5.60;99.90;;;;;;5133213;27;20529;-59
2022/03/03 02:44:38;;;;;;;23.08;12.80;;;-5.60;99.90;;;;;;5132906;27;20015;-59
2022/03/03 02:47:04;;;;;;;19.83;12.70;;;-5.60;99.90;;;;;;5132572;27;20020;-58
2022/03/03 02:49:30;;;;;;;16.73;12.05;;;-5.70;99.90;;;;;;5132446;27;20012;-59
2022/03/03 02:51:56;;;;;;;23.00;13.10;;;-5.70;99.90;;;;;;5133022;27;20019;-58
2022/03/03 02:54:21;;;;;;;24.00;12.90;;;-5.70;99.90;;;;;;5114500;27;20019;-58
2022/03/03 02:59:31;;;;;;;31.13;16.17;;;-5.80;99.90;;;;;;5132662;27;20026;-58
2022/03/03 03:01:57;;;;;;;27.33;14.45;;;-5.70;99.90;;;;;;5132682;27;20019;-58
2022/03/03 03:04:22;;;;;;;19.95;12.73;;;-5.70;99.90;;;;;;5132486;27;20517;-59
2022/03/03 03:06:48;;;;;;;17.98;12.50;;;-5.70;99.90;;;;;;5132676;27;20106;-59
2022/03/03 03:09:14;;;;;;;23.10;11.73;;;-5.70;99.90;;;;;;5132667;27;20592;-58
2022/03/03 03:11:40;;;;;;;19.33;12.02;;;-5.80;99.90;;;;;;5132250;27;20390;-58
2022/03/03 03:14:05;;;;;;;24.05;13.13;;;-5.80;99.90;;;;;;5132590;27;20034;-58
2022/03/03 03:16:31;;;;;;;19.40;14.07;;;-5.70;99.90;;;;;;5132225;27;20019;-59
2022/03/03 03:18:57;;;;;;;15.07;11.45;;;-5.80;99.90;;;;;;5132232;27;20428;-59
2022/03/03 03:21:23;;;;;;;17.65;11.68;;;-5.80;99.90;;;;;;5113776;27;20022;-59
2022/03/03 03:23:49;;;;;;;16.33;12.23;;;-5.90;99.90;;;;;;5132324;27;20478;-58
2022/03/03 03:26:14;;;;;;;14.82;10.18;;;-5.90;99.90;;;;;;5132094;27;20023;-59
2022/03/03 03:28:40;;;;;;;23.10;13.05;;;-5.90;99.90;;;;;;5132179;27;20423;-59
2022/03/03 03:31:06;;;;;;;15.00;11.25;;;-6.00;99.90;;;;;;5132112;27;20098;-58
2022/03/03 03:33:31;;;;;;;16.83;12.18;;;-6.10;99.90;;;;;;5113501;27;20034;-59
2022/03/03 03:35:57;;;;;;;19.52;11.55;;;-6.10;99.90;;;;;;5132061;27;20027;-59
2022/03/03 03:38:23;;;;;;;16.17;11.43;;;-6.00;99.90;;;;;;5113460;27;20019;-59
2022/03/03 03:40:48;;;;;;;18.10;12.25;;;-6.00;99.90;;;;;;5131958;27;20051;-58
2022/03/03 03:43:14;;;;;;;18.92;12.25;;;-6.00;99.90;;;;;;5132052;27;20027;-59
2022/03/03 03:45:39;;;;;;;13.57;11.05;;;-6.00;99.90;;;;;;5130864;27;20023;-59
2022/03/03 03:48:05;;;;;;;20.42;11.98;;;-6.00;99.90;;;;;;5132031;27;20027;-59
2022/03/03 03:50:31;;;;;;;17.25;11.63;;;-6.00;99.90;;;;;;5131777;27;20023;-57
2022/03/03 03:52:57;;;;;;;19.40;10.98;;;-6.00;99.90;;;;;;5131684;27;20489;-58
2022/03/03 03:55:23;;;;;;;23.60;10.65;;;-6.00;99.90;;;;;;5131629;27;20172;-59
2022/03/03 03:57:48;;;;;;;23.38;13.52;;;-6.10;99.90;;;;;;5131738;27;20054;-58
2022/03/03 04:00:15;;;;;;;17.95;12.68;;;-6.10;99.90;;;;;;5131443;27;20489;-58
2022/03/03 04:02:42;;;;;;;17.52;11.65;;;-6.10;99.90;;;;;;5131631;27;20359;-56
2022/03/03 04:05:08;;;;;;;21.73;12.60;;;-6.10;99.90;;;;;;5131800;27;20152;-59
2022/03/03 04:07:34;;;;;;;19.05;10.82;;;-6.10;99.90;;;;;;5131304;27;20110;-58
2022/03/03 04:09:59;;;;;;;11.68;10.00;;;-6.10;99.90;;;;;;5131526;27;20051;-59
2022/03/03 04:12:25;;;;;;;16.95;10.23;;;-6.20;99.90;;;;;;5131376;27;20034;-58
2022/03/03 04:14:52;;;;;;;18.33;11.27;;;-6.20;99.90;;;;;;5131445;27;20022;-58
2022/03/03 04:17:18;;;;;;;23.88;12.85;;;-6.30;99.90;;;;;;5131270;27;20015;-58
2022/03/03 04:19:44;;;;;;;23.15;13.23;;;-6.30;99.90;;;;;;5131326;27;20043;-58
2022/03/03 04:22:10;;;;;;;23.48;11.75;;;-6.30;99.90;;;;;;5131306;27;20030;-58
2022/03/03 04:24:36;;;;;;;18.75;11.52;;;-6.20;99.90;;;;;;5112686;28;20121;-59
2022/03/03 04:27:02;;;;;;;19.30;12.60;;;-6.20;99.90;;;;;;5131376;28;20054;-59
2022/03/03 04:29:27;;;;;;;23.83;11.20;;;-6.30;99.90;;;;;;5131079;28;20031;-59
2022/03/03 04:31:54;;;;;;;18.40;12.00;;;-6.40;99.90;;;;;;5131339;28;20073;-59
2022/03/03 04:34:20;;;;;;;25.08;11.00;;;-6.30;99.90;;;;;;5131067;28;20027;-58
2022/03/03 04:36:46;;;;;;;14.93;10.60;;;-6.30;99.90;;;;;;5131319;28;20035;-57
2022/03/03 04:39:13;;;;;;;30.60;11.80;;;-6.30;99.90;;;;;;5112874;28;20573;-58
2022/03/03 04:41:39;;;;;;;15.40;11.15;;;-6.30;99.90;;;;;;5130967;28;20059;-55
2022/03/03 04:44:05;;;;;;;21.73;10.75;;;-6.20;99.90;;;;;;5131149;28;20069;-59
2022/03/03 04:46:31;;;;;;;18.08;10.93;;;-6.20;99.90;;;;;;5131047;28;20118;-59
2022/03/03 04:48:59;;;;;;;21.20;11.23;;;-6.20;99.90;;;;;;5131038;28;20031;-59
2022/03/03 04:51:26;;;;;;;25.30;11.07;;;-6.30;99.90;;;;;;5112625;28;20504;-58
2022/03/03 04:53:52;;;;;;;21.58;11.20;;;-6.30;99.90;;;;;;5131103;28;20230;-57
2022/03/03 04:56:18;;;;;;;21.65;11.43;;;-6.30;99.90;;;;;;5131392;27;20278;-58
2022/03/03 04:58:44;;;;;;;19.63;13.00;;;-6.30;99.90;;;;;;5116779;27;20043;-58
2022/03/03 05:01:11;;;;;;;19.38;12.27;;;-6.40;99.90;;;;;;5135119;27;20031;-58
2022/03/03 05:03:37;;;;;;;30.30;11.90;;;-6.40;99.90;;;;;;5134835;27;20030;-59
2022/03/03 05:06:03;;;;;;;23.67;11.98;;;-6.30;99.90;;;;;;5135062;27;20303;-59
2022/03/03 05:08:29;;;;;;;24.55;11.18;;;-6.30;99.90;;;;;;5134792;27;20489;-58
2022/03/03 05:10:54;;;;;;;36.78;13.75;;;-6.30;99.90;;;;;;5134691;27;20362;-58
2022/03/03 05:13:20;;;;;;;27.48;13.50;;;-6.40;99.90;;;;;;5134815;27;20058;-58
2022/03/03 05:15:46;;;;;;;17.30;11.43;;;-6.40;99.90;;;;;;5134620;27;20030;-59
2022/03/03 05:18:12;;;;;;;18.38;12.48;;;-6.40;99.90;;;;;;5134626;27;20039;-58
2022/03/03 05:20:38;;;;;;;19.85;14.02;;;-6.40;99.90;;;;;;5134599;27;20035;-58
2022/03/03 05:23:04;;;;;;;16.25;10.63;;;-6.40;99.90;;;;;;5134594;27;20016;-60
2022/03/03 05:25:30;;;;;;;35.90;11.40;;;-6.40;99.90;;;;;;5134232;27;20030;-57
2022/03/03 05:27:58;;;;;;;25.23;11.68;;;-6.40;99.90;;;;;;5134695;27;20474;-59
2022/03/03 05:30:24;;;;;;;41.25;13.48;;;-6.40;99.90;;;;;;5134295;27;20052;-58
2022/03/03 05:32:49;;;;;;;18.58;12.00;;;-6.40;99.90;;;;;;5134325;27;20027;-54
2022/03/03 05:35:15;;;;;;;28.38;12.15;;;-6.50;99.90;;;;;;5134482;27;20019;-56
2022/03/03 05:37:43;;;;;;;28.60;12.05;;;-6.50;99.90;;;;;;5134227;27;20020;-55
2022/03/03 05:40:09;;;;;;;51.55;13.35;;;-6.50;99.90;;;;;;5115913;27;20027;-56
2022/03/03 05:42:36;;;;;;;26.48;13.43;;;-6.50;99.90;;;;;;5115692;27;20027;-58
2022/03/03 05:45:02;;;;;;;29.80;12.05;;;-6.50;99.90;;;;;;5134252;27;20445;-57
2022/03/03 05:47:29;;;;;;;25.33;12.93;;;-6.40;99.90;;;;;;5134002;27;20146;-57
2022/03/03 05:49:56;;;;;;;27.65;12.23;;;-6.50;99.90;;;;;;5134269;27;20068;-57
2022/03/03 05:52:22;;;;;;;29.60;11.48;;;-6.40;99.90;;;;;;5133808;27;20027;-58
2022/03/03 05:54:48;;;;;;;31.48;12.93;;;-6.40;99.90;;;;;;5115449;27;20019;-58
2022/03/03 05:57:25;;;;;;;39.13;12.40;;;-6.40;99.90;;;;;;5134013;27;20030;-58
2022/03/03 05:59:51;;;;;;;33.40;11.18;;;-6.40;99.90;;;;;;5116834;27;20512;-59
2022/03/03 06:02:19;;;;;;;24.83;12.55;;;-6.30;99.90;;;;;;5133780;27;20016;-57
2022/03/03 06:04:49;;;;;;;23.50;11.18;;;-6.40;99.90;;;;;;5133777;27;20442;-56
2022/03/03 06:07:28;;;;;;;33.40;13.75;;;-6.30;99.90;;;;;;5133964;27;20102;-59
2022/03/03 06:09:59;;;;;;;28.73;14.02;;;-6.30;99.90;;;;;;5133272;27;20426;-58
2022/03/03 06:12:45;;;;;;;23.90;14.00;;;-6.30;99.90;;;;;;5133561;27;20518;-55
2022/03/03 06:15:13;;;;;;;29.23;12.73;;;-6.20;99.90;;;;;;5133509;27;20716;-58
2022/03/03 06:17:42;;;;;;;39.50;13.27;;;-6.20;99.90;;;;;;5114811;27;20066;-55
2022/03/03 06:20:08;;;;;;;22.17;12.65;;;-6.10;99.90;;;;;;5133565;27;20019;-56
2022/03/03 06:22:33;;;;;;;29.17;13.52;;;-6.00;99.90;;;;;;5133495;27;20431;-59
2022/03/03 06:24:59;;;;;;;21.42;12.85;;;-5.90;99.90;;;;;;5133383;27;20043;-56
2022/03/03 06:27:26;;;;;;;21.05;11.23;;;-5.90;99.90;;;;;;5114920;27;20060;-58
2022/03/03 06:29:55;;;;;;;33.20;13.88;;;-5.80;99.90;;;;;;5133464;27;20019;-58
2022/03/03 06:32:21;;;;;;;23.83;13.68;;;-5.80;99.90;;;;;;5133223;27;20022;-58
2022/03/03 06:34:46;;;;;;;30.70;12.90;;;-5.70;99.90;;;;;;5133242;27;20113;-58
2022/03/03 06:37:12;;;;;;;22.92;12.27;;;-5.60;99.90;;;;;;5133303;27;20105;-58
2022/03/03 06:39:38;;;;;;;33.30;13.73;;;-5.50;99.90;;;;;;5132930;27;20126;-58
2022/03/03 06:42:04;;;;;;;21.00;10.55;;;-5.30;99.90;;;;;;5133299;27;20019;-59
2022/03/03 06:44:30;;;;;;;50.75;15.48;;;-5.20;99.90;;;;;;5132936;27;20016;-58
2022/03/03 06:46:56;;;;;;;46.08;16.05;;;-5.20;99.90;;;;;;5132895;27;20027;-59
2022/03/03 06:49:22;;;;;;;20.63;13.27;;;-5.20;99.90;;;;;;5132925;27;20428;-58
2022/03/03 06:51:49;;;;;;;20.58;11.25;;;-5.20;99.90;;;;;;5114645;27;20030;-58
2022/03/03 06:54:18;;;;;;;28.42;14.90;;;-5.20;99.90;;;;;;5132834;27;20028;-57
2022/03/03 06:56:53;;;;;;;29.63;14.43;;;-5.10;99.90;;;;;;5132707;27;20023;-56
2022/03/03 06:59:21;;;;;;;32.53;14.40;;;-5.10;99.90;;;;;;5132884;27;20153;-55
2022/03/03 07:01:49;;;;;;;46.58;19.63;;;-4.90;99.90;;;;;;5132741;27;20419;-58
2022/03/03 07:04:16;;;;;;;18.75;11.88;;;-4.70;99.90;;;;;;5132589;27;20019;-58
2022/03/03 07:06:43;;;;;;;26.45;13.70;;;-4.40;99.90;;;;;;5132652;27;20478;-57
2022/03/03 07:09:10;;;;;;;21.73;12.57;;;-4.20;99.90;;;;;;5132508;27;20031;-60
2022/03/03 07:11:38;;;;;;;16.08;10.50;;;-4.00;99.90;;;;;;5113912;27;20042;-56
2022/03/03 07:14:04;;;;;;;22.65;14.23;;;-3.80;99.90;;;;;;5132685;27;20046;-57
2022/03/03 07:16:45;;;;;;;30.90;12.93;;;-3.60;99.90;;;;;;5113876;27;20500;-58
2022/03/03 07:19:26;;;;;;;35.03;13.32;;;-3.40;99.90;;;;;;5132001;27;20047;-59
2022/03/03 07:22:29;;;;;;;17.17;10.55;;;-3.20;99.90;;;;;;5131738;27;20042;-58
2022/03/03 07:25:06;;;;;;;18.33;11.57;;;-3.00;99.90;;;;;;5132220;27;20027;-59
2022/03/03 07:27:33;;;;;;;24.75;11.75;;;-2.80;99.90;;;;;;5132016;27;20015;-59
2022/03/03 07:30:16;;;;;;;28.45;12.68;;;-2.70;99.90;;;;;;5132298;27;20023;-59
2022/03/03 07:32:55;;;;;;;23.75;11.88;;;-2.50;99.90;;;;;;5132170;27;20019;-57
2022/03/03 07:35:25;;;;;;;22.05;9.98;;;-2.30;99.90;;;;;;5132175;27;20524;-58
2022/03/03 07:38:03;;;;;;;18.98;10.55;;;-2.10;99.90;;;;;;5132115;27;20502;-58
2022/03/03 07:40:30;;;;;;;15.40;9.70;;;-1.90;99.90;;;;;;5131785;27;20064;-58
2022/03/03 07:42:57;;;;;;;16.42;10.27;;;-1.70;99.90;;;;;;5131924;27;20035;-58
2022/03/03 07:45:24;;;;;;;19.27;10.10;;;-1.50;99.90;;;;;;5131775;27;20075;-58
2022/03/03 07:47:51;;;;;;;15.73;10.23;;;-1.40;99.90;;;;;;5132041;27;20433;-58
2022/03/03 07:50:17;;;;;;;15.55;9.48;;;-1.20;99.90;;;;;;5131590;27;20031;-59
2022/03/03 07:52:49;;;;;;;22.35;10.18;;;-1.00;99.90;;;;;;5131545;27;20474;-58
2022/03/03 07:55:15;;;;;;;24.25;9.13;;;-0.70;99.90;;;;;;5131676;27;20022;-57
2022/03/03 07:57:52;;;;;;;12.20;8.32;;;-0.50;99.90;;;;;;5131586;27;20080;-58
2022/03/03 08:00:19;;;;;;;11.18;8.25;;;-0.20;97.80;;;;;;5131559;27;20103;-59
2022/03/03 08:02:47;;;;;;;10.95;7.90;;;-0.10;97.30;;;;;;5131688;27;20019;-58
2022/03/03 08:05:15;;;;;;;20.42;9.32;;;0.10;96.90;;;;;;5131670;27;20415;-58
2022/03/03 08:07:44;;;;;;;11.73;8.70;;;0.20;96.20;;;;;;5112865;27;20031;-59
2022/03/03 08:10:11;;;;;;;20.52;9.55;;;0.40;96.30;;;;;;5131920;27;20047;-59
2022/03/03 08:12:39;;;;;;;15.35;7.93;;;0.60;96.10;;;;;;5131352;27;20020;-59
2022/03/03 08:15:06;;;;;;;12.60;8.43;;;0.90;95.70;;;;;;5131376;27;20114;-59
2022/03/03 08:17:34;;;;;;;10.13;7.20;;;1.20;94.40;;;;;;5131250;27;20054;-59
2022/03/03 08:20:03;;;;;;;9.25;7.47;;;1.50;94.30;;;;;;5131238;27;20019;-58
2022/03/03 08:22:29;;;;;;;9.10;5.72;;;1.70;93.10;;;;;;5131339;27;20473;-59
2022/03/03 08:24:57;;;;;;;10.02;7.20;;;1.90;92.40;;;;;;5131505;27;20114;-59
2022/03/03 08:27:25;;;;;;;11.10;6.78;;;2.00;91.70;;;;;;5131240;28;20016;-59
2022/03/03 08:29:52;;;;;;;16.70;7.95;;;2.30;91.70;;;;;;5131447;28;20042;-59
2022/03/03 08:32:19;;;;;;;8.93;6.50;;;2.40;90.60;;;;;;5115371;27;20072;-59
2022/03/03 08:35:04;;;;;;;13.45;8.18;;;2.60;90.60;;;;;;5135430;27;20523;-59
2022/03/03 08:38:04;;;;;;;17.58;7.82;;;2.70;89.30;;;;;;5135618;27;20019;-60
2022/03/03 08:40:30;;;;;;;49.92;9.50;;;2.80;87.20;;;;;;5113059;27;20106;-59
2022/03/03 08:43:00;;;;;;;1387.88;766.20;;;2.80;89.10;;;;;;5135382;27;20019;-59
2022/03/03 08:45:29;;;;;;;205.27;114.00;;;2.90;88.70;;;;;;5135192;27;20086;-59
2022/03/03 08:48:12;;;;;;;60.33;19.92;;;2.90;88.20;;;;;;5135452;27;20050;-60
2022/03/03 08:50:40;;;;;;;19.13;10.65;;;3.20;89.20;;;;;;5135279;27;20023;-59
2022/03/03 08:53:07;;;;;;;16.27;9.73;;;3.40;88.90;;;;;;5135274;27;20027;-59
2022/03/03 08:55:35;;;;;;;21.70;9.85;;;3.60;88.50;;;;;;5134846;27;20111;-59
2022/03/03 08:58:01;;;;;;;29.45;10.20;;;3.70;84.90;;;;;;5135194;27;20066;-60
2022/03/03 09:00:27;;;;;;;112.55;52.72;;;4.00;84.40;;;;;;5135072;27;20102;-60
2022/03/03 09:02:54;;;;;;;88.25;45.85;;;4.00;82.40;;;;;;5135115;27;20393;-60
2022/03/03 09:05:20;;;;;;;415.35;218.65;;;4.10;79.70;;;;;;5134984;27;20102;-60
2022/03/03 09:07:46;;;;;;;47.13;26.65;;;4.20;81.10;;;;;;5134996;27;20033;-60
2022/03/03 09:10:13;;;;;;;15.77;9.63;;;4.30;79.00;;;;;;5134903;27;20428;-59
2022/03/03 09:12:39;;;;;;;12.25;7.78;;;4.50;78.30;;;;;;5134754;27;20038;-59
2022/03/03 09:15:07;;;;;;;10.43;7.20;;;4.80;79.80;;;;;;5134787;27;20023;-59
2022/03/03 09:17:33;;;;;;;11.10;7.78;;;5.00;79.80;;;;;;5134535;27;20387;-59
2022/03/03 09:20:00;;;;;;;13.52;7.40;;;5.10;77.40;;;;;;5134830;27;20466;-59
2022/03/03 09:22:26;;;;;;;16.80;6.82;;;5.20;79.60;;;;;;5134682;27;20019;-59
2022/03/03 09:24:53;;;;;;;12.85;7.50;;;5.10;79.60;;;;;;5134564;27;20051;-59
2022/03/03 09:27:19;;;;;;;13.23;7.45;;;5.30;80.20;;;;;;5134513;27;20034;-59
2022/03/03 09:29:45;;;;;;;17.42;8.82;;;5.40;75.50;;;;;;5134613;27;20020;-59
2022/03/03 09:32:13;;;;;;;22.55;13.27;;;5.40;75.10;;;;;;5134321;27;20481;-60
2022/03/03 09:34:39;;;;;;;22.17;13.30;;;5.40;75.60;;;;;;5134447;27;20023;-59
2022/03/03 09:37:05;;;;;;;15.98;10.80;;;5.50;77.80;;;;;;5134388;27;20030;-59
2022/03/03 09:39:31;;;;;;;78.68;49.65;;;5.70;75.20;;;;;;5134116;27;20019;-60
2022/03/03 09:41:57;;;;;;;22.38;13.63;;;5.80;75.70;;;;;;5134457;27;20140;-60
2022/03/03 09:44:25;;;;;;;23.08;12.57;;;5.90;74.50;;;;;;5133028;27;20363;-59
2022/03/03 09:46:51;;;;;;;21.48;10.63;;;5.90;74.40;;;;;;5134239;27;20223;-60
2022/03/03 09:49:17;;;;;;;16.45;10.55;;;6.20;74.60;;;;;;5134180;27;20160;-59
2022/03/03 09:51:43;;;;;;;25.05;13.18;;;6.30;73.70;;;;;;5134084;27;20031;-59
2022/03/03 09:54:09;;;;;;;20.02;11.38;;;6.30;71.30;;;;;;5134080;27;20023;-60
2022/03/03 09:56:36;;;;;;;21.27;11.40;;;6.40;69.30;;;;;;5134081;27;20106;-60
2022/03/03 09:59:02;;;;;;;26.02;12.55;;;6.50;68.60;;;;;;5115616;27;20046;-60
2022/03/03 10:01:29;;;;;;;22.50;10.93;;;6.50;68.70;;;;;;5133693;27;20069;-60
2022/03/03 10:03:58;;;;;;;18.48;10.45;;;6.50;69.80;;;;;;5134008;27;20024;-60
2022/03/03 10:06:23;;;;;;;22.83;10.63;;;6.60;68.10;;;;;;5133646;27;20080;-60
2022/03/03 10:08:53;;;;;;;18.67;11.23;;;6.60;67.10;;;;;;5133817;27;20355;-60
2022/03/03 10:11:19;;;;;;;28.73;11.27;;;6.80;65.50;;;;;;5133947;27;20023;-60
2022/03/03 10:13:52;;;;;;;25.52;11.77;;;7.00;66.10;;;;;;5133731;27;20385;-60
2022/03/03 10:16:30;;;;;;;16.25;9.50;;;7.10;67.40;;;;;;5133392;27;20027;-59
2022/03/03 10:19:04;;;;;;;15.18;9.98;;;7.20;64.70;;;;;;5133274;27;20103;-59
2022/03/03 10:21:33;;;;;;;20.90;10.68;;;7.30;65.40;;;;;;5133398;27;20026;-60
2022/03/03 10:23:59;;;;;;;18.75;10.50;;;7.60;63.90;;;;;;5133615;27;20034;-60
2022/03/03 10:26:38;;;;;;;15.88;8.93;;;7.90;64.00;;;;;;5133437;27;20036;-60
2022/03/03 10:29:16;;;;;;;18.80;9.27;;;8.10;61.10;;;;;;5133584;27;20419;-60
2022/03/03 10:31:50;;;;;;;15.30;10.00;;;8.20;60.10;;;;;;5133500;27;20108;-60
2022/03/03 10:34:27;;;;;;;12.38;8.80;;;8.20;58.00;;;;;;5133334;27;20381;-60
2022/03/03 10:37:01;;;;;;;19.17;9.63;;;8.60;58.30;;;;;;5133205;27;20054;-60
2022/03/03 10:39:45;;;;;;;18.20;10.13;;;9.40;53.40;;;;;;5132559;27;20024;-60
2022/03/03 10:42:29;;;;;;;21.25;9.43;;;10.30;52.90;;;;;;5133152;27;20323;-60
2022/03/03 10:45:07;;;;;;;20.88;8.48;;;12.10;47.20;;;;;;5133289;27;20019;-60
2022/03/03 10:47:33;;;;;;;21.42;11.57;;;13.60;44.00;;;;;;5132348;27;20057;-60
2022/03/03 10:50:02;;;;;;;11.55;7.85;;;13.90;40.40;;;;;;5132824;27;20103;-60
2022/03/03 10:52:31;;;;;;;8.20;6.53;;;16.10;36.40;;;;;;5132867;27;20478;-61
2022/03/03 10:55:11;;;;;;;19.08;9.07;;;18.40;31.80;;;;;;5113715;27;20103;-61
2022/03/03 10:57:59;;;;;;;15.90;8.88;;;19.00;30.70;;;;;;5132648;27;20496;-61
2022/03/03 11:00:30;;;;;;;14.60;8.13;;;17.80;30.00;;;;;;5132656;27;20015;-61
2022/03/03 11:03:01;;;;;;;14.02;7.75;;;18.30;30.40;;;;;;5132704;27;20122;-61
2022/03/03 11:05:29;;;;;;;19.70;9.10;;;18.20;28.80;;;;;;5132827;27;20023;-61
2022/03/03 11:07:56;;;;;;;12.13;7.97;;;18.00;29.00;;;;;;5132721;27;20052;-59
2022/03/03 11:10:25;;;;;;;11.48;8.35;;;17.60;28.80;;;;;;5114090;27;20027;-59
2022/03/03 11:12:51;;;;;;;21.17;9.43;;;17.50;28.90;;;;;;5132517;27;20062;-59
2022/03/03 11:15:19;;;;;;;14.88;7.82;;;16.90;29.40;;;;;;5132283;27;20027;-60
2022/03/03 11:17:45;;;;;;;14.27;8.48;;;17.30;29.50;;;;;;5132519;27;20126;-59
2022/03/03 11:20:13;;;;;;;13.45;7.70;;;17.10;29.60;;;;;;5132529;27;20023;-60
2022/03/03 11:22:40;;;;;;;15.38;8.23;;;18.10;29.10;;;;;;5132270;27;20034;-60
2022/03/03 11:25:09;;;;;;;17.77;7.20;;;17.90;28.60;;;;;;5132434;27;20062;-59
2022/03/03 11:27:40;;;;;;;12.77;6.85;;;17.70;28.90;;;;;;5132056;27;20485;-59
2022/03/03 11:30:28;;;;;;;9.63;7.03;;;17.90;28.30;;;;;;5132109;27;20470;-60
2022/03/03 11:33:24;;;;;;;12.93;6.88;;;17.40;28.10;;;;;;5132166;27;20023;-60
2022/03/03 11:36:01;;;;;;;25.90;7.45;;;18.10;28.50;;;;;;5131933;27;20023;-60
2022/03/03 11:38:54;;;;;;;9.85;6.35;;;18.10;27.60;;;;;;5132056;27;20027;-60
2022/03/03 11:41:23;;;;;;;15.60;6.90;;;18.30;27.00;;;;;;5119416;27;20031;-60
2022/03/03 11:43:59;;;;;;;13.02;8.70;;;18.30;28.40;;;;;;5131953;27;20418;-60
2022/03/03 11:46:47;;;;;;;18.33;9.80;;;19.80;29.50;;;;;;5131653;27;20473;-60
2022/03/03 11:49:19;;;;;;;14.68;8.35;;;20.30;29.20;;;;;;5113598;27;20062;-59
2022/03/03 11:51:48;;;;;;;17.02;8.90;;;19.20;27.90;;;;;;5131905;27;20025;-60
2022/03/03 11:54:14;;;;;;;11.68;8.70;;;19.00;29.30;;;;;;5131801;27;20415;-59
2022/03/03 11:57:06;;;;;;;13.98;8.48;;;18.70;28.60;;;;;;5131552;27;20023;-60
2022/03/03 11:59:40;;;;;;;28.35;8.63;;;18.30;28.10;;;;;;5131490;27;20023;-60
2022/03/03 12:02:06;;;;;;;12.98;7.72;;;18.00;28.10;;;;;;5131721;27;20465;-60
2022/03/03 12:04:33;;;;;;;15.82;8.68;;;18.60;27.80;;;;;;5131705;27;20423;-60
2022/03/03 12:06:59;;;;;;;16.10;7.10;;;18.20;27.50;;;;;;5130992;27;20023;-60
2022/03/03 12:09:32;;;;;;;19.58;7.90;;;18.00;27.40;;;;;;5131408;27;20038;-60
2022/03/03 12:12:11;;;;;;;13.50;7.50;;;18.50;28.30;;;;;;5131617;27;20076;-60
2022/03/03 12:14:39;;;;;;;13.52;7.55;;;18.30;27.60;;;;;;5131545;27;20033;-60
2022/03/03 12:17:33;;;;;;;13.73;6.95;;;19.00;27.20;;;;;;5131333;27;20061;-60
2022/03/03 12:20:27;;;;;;;13.00;7.35;;;19.50;26.30;;;;;;5131561;27;20397;-60
2022/03/03 12:23:11;;;;;;;10.40;7.13;;;20.30;26.50;;;;;;5119713;27;20030;-60
2022/03/03 12:25:59;;;;;;;11.85;8.48;;;19.70;27.40;;;;;;5131264;27;20031;-60
2022/03/03 12:28:40;;;;;;;13.40;7.80;;;20.00;27.80;;;;;;5131349;27;20058;-60
2022/03/03 12:31:27;;;;;;;12.70;7.60;;;19.80;28.00;;;;;;5131495;28;20419;-60
2022/03/03 12:34:06;;;;;;;16.05;8.77;;;20.00;28.90;;;;;;5131393;28;20102;-60
2022/03/03 12:36:34;;;;;;;12.95;9.02;;;20.10;28.40;;;;;;5131017;28;20019;-60
2022/03/03 12:39:00;;;;;;;11.93;8.10;;;19.70;27.80;;;;;;5131309;28;20087;-60
2022/03/03 12:41:30;;;;;;;11.10;7.70;;;19.90;28.50;;;;;;5130971;28;20019;-60
2022/03/03 12:44:11;;;;;;;23.20;7.40;;;20.40;27.70;;;;;;5131354;28;20027;-59